X  Tanca Dades meteorològiques de l'aviació METAR     LIPX Verona-Villafranca Valerio Catullo Airport
Temperatura
33°C Temperatura
18°C Rosada
41% Humitat



Vent
8 KM/H
5 MPH
2 M/S
4 NUS



170°
S
Condicions actuals

Majoritàriament núvols dispersos Majoritàriament núvols dispersos
Pressió 1013.88 (hPa) - 29.94 (inHg)
Visibilitat 6 (milla) - 9.7 (km)
Aeroport
Codi aeroport LIPX

Ubicació: Verona-Villafranca Valerio Catullo Airport
Distància: 0 (km)

Metar:
LIPX 231420Z 17004KT 100V250 9999 SCT020 33/18 Q1014

Temps: 23-07-2024 14:20 CEST